Time;durP1;ratioP1;P1;durP2;ratioP2;P2;SDS_P1;SDS_P2;PMS_P1;PMS_P2;Temp;Humidity;BMP_temperature;BMP_pressure;BME280_temperature;BME280_humidity;BME280_pressure;Samples;Min_cycle;Max_cycle;Signal;HPM_P1;HPM_P2
2023/03/06 00:01:09;;;;;;;9.20;8.02;;;6.30;99.90;;;6.59;81.56;100790.34;5033599;28;20120;-68
2023/03/06 00:03:37;;;;;;;10.25;9.23;;;6.40;99.90;;;6.58;81.52;100778.97;5033907;28;20037;-68
2023/03/06 00:06:06;;;;;;;9.35;8.45;;;6.40;99.90;;;6.59;80.91;100782.47;5033583;28;20041;-68
2023/03/06 00:08:34;;;;;;;11.80;9.25;;;6.40;99.90;;;6.65;80.89;100778.19;5033980;28;20136;-68
2023/03/06 00:11:04;;;;;;;10.05;8.50;;;6.40;99.90;;;6.66;80.61;100768.56;5048905;28;20506;-68
2023/03/06 00:13:33;;;;;;;10.63;9.38;;;6.40;99.90;;;6.67;80.51;100767.66;5033545;28;20044;-68
2023/03/06 00:16:02;;;;;;;11.88;9.45;;;6.50;99.90;;;6.69;80.47;100763.31;5033347;28;20463;-68
2023/03/06 00:18:30;;;;;;;11.00;9.27;;;6.50;99.90;;;6.62;80.40;100761.50;5033347;28;20512;-68
2023/03/06 00:20:59;;;;;;;9.35;7.57;;;6.40;99.90;;;6.53;81.00;100761.41;5033548;28;20050;-68
2023/03/06 00:23:27;;;;;;;9.02;7.68;;;6.30;99.90;;;6.44;81.50;100759.56;5032193;28;20042;-68
2023/03/06 00:25:56;;;;;;;8.97;8.17;;;6.20;99.90;;;6.39;81.83;100756.88;5033211;28;20080;-68
2023/03/06 00:28:26;;;;;;;9.50;8.57;;;6.10;99.90;;;6.31;82.17;100753.28;5033153;28;20095;-68
2023/03/06 00:30:54;;;;;;;8.77;8.00;;;6.00;99.90;;;6.35;82.17;100754.19;5032046;28;20053;-69
2023/03/06 00:33:22;;;;;;;8.75;7.95;;;6.10;99.90;;;6.27;82.22;100748.88;5033343;28;20042;-69
2023/03/06 00:35:50;;;;;;;8.65;7.78;;;6.00;99.90;;;6.18;82.06;100745.25;5033282;28;20063;-68
2023/03/06 00:38:19;;;;;;;9.82;8.88;;;6.00;99.90;;;6.17;82.01;100747.03;5031951;28;20048;-68
2023/03/06 00:40:47;;;;;;;10.27;8.95;;;5.90;99.90;;;6.12;81.67;100732.94;5033255;28;20124;-68
2023/03/06 00:43:15;;;;;;;10.10;9.23;;;6.00;99.90;;;6.10;82.09;100737.31;5033171;28;20472;-68
2023/03/06 00:45:45;;;;;;;10.63;8.68;;;5.90;99.90;;;6.14;81.75;100730.34;5033151;28;20120;-68
2023/03/06 00:48:14;;;;;;;11.23;10.13;;;5.90;99.90;;;6.19;82.13;100726.91;5048254;28;20072;-68
2023/03/06 00:50:42;;;;;;;10.85;9.82;;;6.00;99.90;;;6.14;81.86;100728.59;5031772;28;20053;-69
2023/03/06 00:53:12;;;;;;;12.45;10.93;;;6.00;99.90;;;6.23;81.71;100728.69;5032706;28;20480;-69
2023/03/06 00:55:44;;;;;;;15.68;9.63;;;6.00;99.90;;;6.12;81.68;100724.19;5032644;28;20128;-69
2023/03/06 00:58:13;;;;;;;11.20;10.20;;;6.00;99.90;;;6.19;82.24;100729.53;5033282;28;20079;-68
2023/03/06 01:00:41;;;;;;;10.03;9.07;;;6.00;99.90;;;6.31;82.18;100728.78;5032651;28;20485;-69
2023/03/06 01:03:11;;;;;;;10.80;9.55;;;6.00;99.90;;;6.37;82.62;100727.09;5031609;28;20566;-69
2023/03/06 01:05:40;;;;;;;13.77;9.52;;;6.10;99.90;;;6.48;82.50;100719.34;5031636;28;20489;-69
2023/03/06 01:08:08;;;;;;;9.48;8.57;;;6.20;99.90;;;6.49;82.55;100714.94;5031816;28;20057;-69
2023/03/06 01:10:39;;;;;;;9.98;8.98;;;6.20;99.90;;;6.22;82.87;100715.56;5033074;28;20532;-68
2023/03/06 01:13:09;;;;;;;9.05;8.18;;;6.10;99.90;;;6.33;83.41;100711.28;5032761;28;20053;-69
2023/03/06 01:15:38;;;;;;;7.35;6.75;;;6.10;99.90;;;6.36;83.21;100709.59;5032442;28;20485;-68
2023/03/06 01:18:06;;;;;;;8.30;7.03;;;6.10;99.90;;;6.35;83.36;100717.44;5031448;28;20103;-69
2023/03/06 01:20:38;;;;;;;6.85;6.28;;;6.00;99.90;;;6.41;83.69;100706.13;5032831;28;20040;-69
2023/03/06 01:23:06;;;;;;;7.20;6.55;;;6.10;99.90;;;6.25;83.40;100710.34;5031480;28;20095;-69
2023/03/06 01:25:34;;;;;;;7.97;6.15;;;6.00;99.90;;;6.27;83.77;100709.47;5032779;28;20100;-69
2023/03/06 01:28:03;;;;;;;6.65;5.13;;;6.00;99.90;;;6.27;84.00;100706.84;5032654;28;20124;-68
2023/03/06 01:30:31;;;;;;;7.93;5.90;;;5.90;99.90;;;6.21;83.76;100711.19;5032621;28;20128;-69
2023/03/06 01:33:01;;;;;;;9.63;4.97;;;5.90;99.90;;;6.04;84.26;100691.75;5031255;28;20493;-69
2023/03/06 01:35:29;;;;;;;5.53;4.82;;;5.80;99.90;;;6.31;83.66;100699.88;5031257;28;20042;-68
2023/03/06 01:37:59;;;;;;;7.53;4.75;;;6.00;99.90;;;6.27;83.35;100704.22;5031268;28;20489;-69
2023/03/06 01:40:27;;;;;;;4.90;4.53;;;6.00;99.90;;;6.35;83.00;100709.56;5032337;28;20037;-68
2023/03/06 01:42:55;;;;;;;4.63;4.25;;;6.00;99.90;;;6.36;82.45;100709.59;5032538;28;20053;-69
2023/03/06 01:46:21;;;;;;;5.00;4.60;;;6.10;99.90;;;6.36;82.39;100699.09;5031449;28;20144;-68
2023/03/06 01:48:54;;;;;;;5.22;4.72;;;6.10;99.90;;;6.37;81.90;100690.31;5032343;28;20065;-69
2023/03/06 01:51:25;;;;;;;5.13;4.72;;;6.10;99.90;;;6.48;81.69;100686.91;5031089;28;20107;-69
2023/03/06 01:53:58;;;;;;;5.28;4.78;;;6.30;99.90;;;6.35;80.80;100638.63;5031176;28;20045;-68
2023/03/06 01:56:26;;;;;;;4.28;3.97;;;6.30;99.90;;;6.60;80.48;100684.41;5032463;28;20099;-69
2023/03/06 01:58:55;;;;;;;5.07;4.43;;;6.30;99.90;;;6.61;80.09;100673.91;5031081;28;20084;-68
2023/03/06 02:01:24;;;;;;;4.70;4.28;;;6.40;99.90;;;6.64;79.67;100683.56;5030988;28;20083;-68
2023/03/06 02:03:53;;;;;;;5.38;4.22;;;6.40;99.90;;;6.67;79.31;100678.31;5031029;28;20046;-69
2023/03/06 02:06:23;;;;;;;4.35;4.05;;;6.40;99.90;;;6.64;79.24;100675.69;5030815;28;20037;-69
2023/03/06 02:08:53;;;;;;;4.55;4.18;;;6.50;99.90;;;6.55;79.02;100665.09;5034441;28;20136;-69
2023/03/06 02:11:25;;;;;;;5.63;5.28;;;6.40;99.90;;;6.35;78.78;100622.88;5035935;28;20033;-69
2023/03/06 02:13:54;;;;;;;4.82;4.35;;;6.40;99.90;;;6.68;78.47;100669.59;5051367;28;20111;-68
2023/03/06 02:16:27;;;;;;;5.20;4.73;;;6.50;99.90;;;6.67;78.40;100663.44;5051186;28;20045;-69
2023/03/06 02:18:56;;;;;;;5.75;5.35;;;6.50;99.90;;;6.62;78.19;100659.03;5036116;28;20296;-69
2023/03/06 02:21:29;;;;;;;5.30;4.80;;;6.40;99.90;;;6.58;78.37;100652.84;5035603;28;20072;-68
2023/03/06 02:24:11;;;;;;;5.38;4.97;;;6.40;99.90;;;6.56;78.43;100653.72;5035555;28;20485;-69
2023/03/06 02:26:42;;;;;;;5.50;5.10;;;6.40;99.90;;;6.53;78.23;100648.41;5036017;28;20045;-69
2023/03/06 02:29:11;;;;;;;5.72;5.28;;;6.40;99.90;;;6.48;77.98;100640.53;5034696;28;20599;-68
2023/03/06 02:31:40;;;;;;;5.13;4.72;;;6.30;99.90;;;6.47;77.60;100653.63;5034255;28;20076;-68
2023/03/06 02:34:50;;;;;;;6.75;5.03;;;6.20;99.90;;;6.42;77.68;100619.47;5034350;28;20049;-69
2023/03/06 02:37:19;;;;;;;6.35;5.85;;;6.20;99.90;;;6.35;77.60;100626.41;5035662;28;20080;-69
2023/03/06 02:39:54;;;;;;;6.72;6.22;;;6.20;99.90;;;5.74;77.51;100534.81;5034230;28;20447;-69
2023/03/06 02:42:27;;;;;;;6.72;6.20;;;6.10;99.90;;;6.30;77.70;100620.22;5034251;28;20053;-69
2023/03/06 02:45:00;;;;;;;8.70;7.25;;;6.10;99.90;;;6.29;77.48;100612.34;5034115;28;20084;-68
2023/03/06 02:47:28;;;;;;;7.80;6.93;;;6.10;99.90;;;6.27;77.69;100609.69;5034133;28;20515;-69
2023/03/06 02:49:56;;;;;;;7.97;7.32;;;6.00;99.90;;;6.28;77.73;100608.84;5033799;28;20136;-69
2023/03/06 02:52:25;;;;;;;7.50;6.97;;;6.10;99.90;;;6.27;77.79;100604.44;5033891;28;20084;-68
2023/03/06 02:54:53;;;;;;;7.15;6.55;;;6.10;99.90;;;6.32;77.54;100605.38;5035186;28;20042;-68
2023/03/06 02:57:21;;;;;;;9.00;6.82;;;6.10;99.90;;;6.39;77.73;100609.78;5033587;28;20157;-68
2023/03/06 02:59:51;;;;;;;6.97;6.35;;;6.20;99.90;;;6.39;77.82;100601.03;5033884;28;20049;-68
2023/03/06 03:02:20;;;;;;;7.15;6.57;;;6.20;99.90;;;6.28;77.80;100593.06;5033470;28;20053;-69
2023/03/06 03:04:48;;;;;;;9.30;8.50;;;6.20;99.90;;;6.20;78.06;100565.88;5033946;28;20044;-69
2023/03/06 03:07:18;;;;;;;9.68;8.77;;;6.10;99.90;;;6.32;78.33;100593.97;5033558;28;20129;-68
2023/03/06 03:09:47;;;;;;;8.20;7.57;;;6.10;99.90;;;6.24;78.54;100586.03;5033578;28;20393;-69
2023/03/06 03:12:16;;;;;;;9.13;8.05;;;6.10;99.90;;;6.22;78.54;100597.38;5034887;28;20041;-69
2023/03/06 03:14:44;;;;;;;9.02;8.13;;;6.00;99.90;;;6.20;78.83;100594.75;5035103;28;20049;-68
2023/03/06 03:17:14;;;;;;;9.15;7.13;;;6.00;99.90;;;6.15;79.25;100583.34;5033432;28;20049;-68
2023/03/06 03:19:43;;;;;;;8.20;7.50;;;5.90;99.90;;;6.17;79.49;100597.38;5034456;28;20041;-69
2023/03/06 03:22:11;;;;;;;8.20;7.43;;;5.90;99.90;;;6.16;79.69;100595.59;5033426;28;20507;-69
2023/03/06 03:24:40;;;;;;;8.77;7.50;;;5.90;99.90;;;6.21;79.72;100595.66;5034412;28;20445;-69
2023/03/06 03:27:10;;;;;;;8.63;7.93;;;5.90;99.90;;;6.22;79.78;100585.16;5033450;28;20145;-68
2023/03/06 03:29:38;;;;;;;8.55;7.57;;;6.00;99.90;;;6.00;79.76;100541.19;5033267;28;20124;-69
2023/03/06 03:32:07;;;;;;;8.90;8.15;;;6.00;99.90;;;6.29;79.96;100581.69;5033201;28;20459;-68
2023/03/06 03:34:37;;;;;;;8.10;7.30;;;6.00;99.90;;;6.16;79.93;100553.59;5033296;28;20072;-68
2023/03/06 03:37:06;;;;;;;8.55;7.82;;;6.10;99.90;;;6.30;79.88;100567.72;5034435;28;20045;-69
2023/03/06 03:39:34;;;;;;;7.20;6.50;;;6.10;99.90;;;6.30;80.12;100572.97;5033048;28;20048;-68
2023/03/06 03:42:04;;;;;;;6.82;6.18;;;6.10;99.90;;;6.33;80.10;100561.59;5032949;28;20053;-69
2023/03/06 03:44:33;;;;;;;7.03;6.43;;;6.10;99.90;;;5.99;79.97;100501.81;5033285;28;20049;-68
2023/03/06 03:47:02;;;;;;;6.93;6.25;;;6.10;99.90;;;6.32;80.17;100555.47;5033141;28;20056;-68
2023/03/06 03:49:31;;;;;;;7.85;7.00;;;6.00;99.90;;;6.33;80.11;100559.84;5032649;28;20049;-68
2023/03/06 03:52:02;;;;;;;7.03;6.43;;;6.10;99.90;;;6.35;79.83;100562.47;5033118;28;20129;-68
2023/03/06 03:54:33;;;;;;;7.35;6.63;;;6.10;99.90;;;6.37;79.90;100552.84;5049399;28;20304;-69
2023/03/06 03:57:02;;;;;;;7.30;6.60;;;6.10;99.90;;;6.40;79.89;100552.91;5032767;28;20586;-69
2023/03/06 03:59:34;;;;;;;7.05;6.35;;;6.20;99.90;;;6.43;79.66;100547.66;5032787;28;20042;-69
2023/03/06 04:02:20;;;;;;;7.30;6.50;;;6.20;99.90;;;6.46;79.62;100544.19;5032711;28;20520;-69
2023/03/06 04:05:06;;;;;;;7.47;6.88;;;6.20;99.90;;;6.50;79.61;100553.84;5032478;28;20496;-68
2023/03/06 04:07:36;;;;;;;7.28;6.65;;;6.30;99.90;;;6.58;79.16;100541.63;5032374;28;20098;-68
2023/03/06 04:10:05;;;;;;;7.15;6.43;;;6.40;99.90;;;6.41;78.96;100520.50;5032533;28;20476;-69
2023/03/06 04:12:35;;;;;;;;;;;6.40;99.90;;;6.58;79.21;100541.63;5032963;28;20045;-69
2023/03/06 04:15:04;;;;;;;7.60;6.90;;;6.50;99.90;;;6.61;79.25;100539.91;5032414;28;20303;-68
2023/03/06 04:17:33;;;;;;;6.40;5.80;;;6.50;99.90;;;6.53;79.39;100527.56;5048905;28;20049;-69
2023/03/06 04:20:04;;;;;;;7.65;6.93;;;6.50;99.90;;;6.59;79.22;100539.00;5033503;28;20041;-68
2023/03/06 04:22:35;;;;;;;8.32;6.45;;;6.40;99.90;;;6.59;79.42;100528.50;5032092;28;20050;-68
2023/03/06 04:25:04;;;;;;;7.57;6.90;;;6.40;99.90;;;6.60;79.35;100511.00;5048725;28;20046;-68
2023/03/06 04:27:32;;;;;;;8.20;6.43;;;6.40;99.90;;;6.62;79.24;100520.63;5033376;28;20053;-68
2023/03/06 04:30:01;;;;;;;7.75;6.32;;;6.40;99.90;;;6.62;79.19;100507.50;5031802;28;20396;-68
2023/03/06 04:32:30;;;;;;;6.90;6.30;;;6.40;99.90;;;6.60;79.59;100508.38;5032087;28;20053;-68
2023/03/06 04:35:00;;;;;;;8.27;6.72;;;6.40;99.90;;;6.59;79.48;100502.22;5032022;28;20145;-69
2023/03/06 04:37:35;;;;;;;6.45;5.85;;;6.40;99.90;;;6.60;79.55;100495.22;5032006;28;20132;-69
2023/03/06 04:40:05;;;;;;;9.15;6.57;;;6.40;99.90;;;6.71;79.22;100506.66;5032021;28;20049;-68
2023/03/06 04:42:34;;;;;;;8.13;7.22;;;6.50;99.90;;;6.71;79.52;100501.41;5033554;28;20140;-69
2023/03/06 04:45:02;;;;;;;7.03;6.47;;;6.50;99.90;;;6.43;79.97;100465.38;5033191;28;20041;-68
2023/03/06 04:47:31;;;;;;;8.65;6.70;;;6.40;99.90;;;6.60;80.37;100477.69;5032870;28;20128;-68
2023/03/06 04:49:59;;;;;;;7.10;6.32;;;6.50;99.90;;;6.49;81.94;100491.66;5033273;28;20536;-69
2023/03/06 04:52:27;;;;;;;8.07;6.60;;;6.30;99.90;;;6.66;82.61;100497.91;5031778;28;20461;-68
2023/03/06 04:54:57;;;;;;;8.35;7.55;;;6.40;99.90;;;6.72;81.94;100469.88;5032669;28;20099;-69
2023/03/06 04:57:26;;;;;;;9.02;6.85;;;6.50;99.90;;;6.94;81.64;100484.88;5032746;28;20048;-69
2023/03/06 04:59:54;;;;;;;14.20;7.80;;;6.70;99.90;;;7.00;81.84;100486.66;5032705;28;20038;-68
2023/03/06 05:02:23;;;;;;;11.13;8.10;;;6.70;99.90;;;7.02;82.00;100490.16;5031665;28;20049;-69
2023/03/06 05:04:51;;;;;;;9.80;7.85;;;6.80;99.90;;;7.03;82.23;100491.91;5031613;28;20057;-69
2023/03/06 05:07:20;;;;;;;10.23;8.48;;;6.80;99.90;;;6.96;82.49;100500.66;5032627;28;20103;-68
2023/03/06 05:09:48;;;;;;;9.73;8.43;;;6.80;99.90;;;6.95;82.46;100499.78;5032547;28;20037;-69
2023/03/06 05:12:18;;;;;;;12.60;9.00;;;6.80;99.90;;;6.82;83.41;100500.59;5033152;28;20075;-68
2023/03/06 05:14:46;;;;;;;9.80;8.80;;;6.60;99.90;;;6.75;84.08;100490.94;5032448;28;20045;-69
2023/03/06 05:17:15;;;;;;;10.80;9.65;;;6.50;99.90;;;6.88;84.50;100497.09;5032439;28;20041;-68
2023/03/06 05:19:43;;;;;;;12.73;10.25;;;6.60;99.90;;;6.89;84.25;100493.63;5032405;28;20045;-69
2023/03/06 05:22:12;;;;;;;15.32;10.15;;;6.60;99.90;;;6.85;85.13;100495.34;5032765;28;20124;-69
2023/03/06 05:24:40;;;;;;;14.50;10.20;;;6.60;99.90;;;7.08;84.90;100495.44;5032656;28;20132;-69
2023/03/06 05:27:08;;;;;;;16.52;9.15;;;6.80;99.90;;;7.23;84.71;100492.88;5032410;28;20151;-69
2023/03/06 05:29:38;;;;;;;13.40;9.05;;;6.90;99.90;;;7.25;84.28;100492.00;5032399;28;20034;-68
2023/03/06 05:32:07;;;;;;;12.40;9.40;;;6.90;99.90;;;7.41;84.47;100485.03;5032571;28;20033;-68
2023/03/06 05:34:36;;;;;;;11.48;9.00;;;7.10;99.90;;;7.44;83.75;100481.50;5032062;28;20358;-69
2023/03/06 05:37:04;;;;;;;15.02;9.82;;;7.20;99.90;;;7.49;83.52;100485.91;5031332;28;20048;-69
2023/03/06 05:39:32;;;;;;;13.73;9.00;;;7.20;99.90;;;7.42;84.04;100492.03;5032246;28;20483;-69
2023/03/06 05:42:01;;;;;;;10.60;7.63;;;7.10;99.90;;;7.26;84.82;100475.34;5034615;28;20129;-68
2023/03/06 05:44:32;;;;;;;14.77;7.43;;;7.00;99.90;;;7.03;85.14;100474.38;5036570;28;20471;-69
2023/03/06 05:47:01;;;;;;;10.52;6.85;;;6.90;99.90;;;7.00;85.88;100482.28;5036272;28;20053;-69
2023/03/06 05:49:33;;;;;;;13.10;7.32;;;6.80;99.90;;;7.00;85.87;100484.91;5035054;28;20111;-69
2023/03/06 05:52:03;;;;;;;16.75;8.07;;;6.70;99.90;;;7.08;84.65;100479.69;5036209;28;20120;-69
2023/03/06 05:54:32;;;;;;;10.60;8.27;;;6.80;99.90;;;7.10;83.63;100481.41;5036423;28;20048;-69
2023/03/06 05:57:03;;;;;;;15.40;10.18;;;6.80;99.90;;;6.86;83.65;100476.09;5036027;28;20578;-69
2023/03/06 05:59:31;;;;;;;12.27;9.75;;;6.70;99.90;;;6.88;84.04;100481.34;5036095;28;20794;-68
2023/03/06 06:02:02;;;;;;;15.48;8.90;;;6.70;99.90;;;6.78;83.68;100455.88;5036222;28;20152;-69
2023/03/06 06:04:31;;;;;;;11.77;9.85;;;6.70;99.90;;;6.85;84.02;100478.72;5036552;28;20107;-69
2023/03/06 06:07:01;;;;;;;14.10;9.88;;;6.60;99.90;;;7.18;83.83;100482.31;5036389;28;20057;-68
2023/03/06 06:09:29;;;;;;;12.68;9.00;;;6.80;99.90;;;7.11;83.24;100480.56;5035964;28;20068;-69
2023/03/06 06:12:00;;;;;;;14.93;9.23;;;6.90;99.90;;;7.18;83.18;100484.94;5035743;28;20073;-69
2023/03/06 06:14:29;;;;;;;11.02;8.52;;;6.90;99.90;;;7.22;83.29;100485.84;5035691;28;20470;-68
2023/03/06 06:16:57;;;;;;;14.60;9.25;;;6.90;99.90;;;7.40;83.18;100485.88;5036073;28;20045;-69
2023/03/06 06:19:29;;;;;;;12.85;8.32;;;7.10;99.90;;;7.30;83.48;100485.00;5035492;28;20041;-68
2023/03/06 06:21:57;;;;;;;14.15;8.10;;;7.00;99.90;;;7.46;83.12;100493.78;5034186;28;20140;-68
2023/03/06 06:24:27;;;;;;;10.70;7.15;;;7.20;99.90;;;7.58;82.83;100488.56;5035434;28;20045;-69
2023/03/06 06:26:57;;;;;;;8.68;6.40;;;7.30;99.90;;;7.57;82.89;100489.41;5035431;28;20041;-68
2023/03/06 06:29:27;;;;;;;11.43;6.57;;;7.30;99.90;;;7.59;82.89;100487.66;5035484;28;20563;-68
2023/03/06 06:31:56;;;;;;;7.93;5.20;;;7.30;99.90;;;7.67;82.88;100490.31;5035636;28;20084;-69
2023/03/06 06:34:27;;;;;;;7.55;4.82;;;7.40;99.90;;;7.77;82.39;100486.81;5035255;28;20080;-69
2023/03/06 06:36:56;;;;;;;9.45;4.68;;;7.60;99.90;;;7.78;82.13;100489.44;5035279;28;20041;-68
2023/03/06 06:39:24;;;;;;;6.43;4.95;;;7.60;99.90;;;7.84;81.77;100492.06;5034297;28;20057;-69
2023/03/06 06:41:53;;;;;;;7.68;4.13;;;7.60;99.90;;;7.83;81.77;100490.34;5035097;28;20069;-68
2023/03/06 06:44:41;;;;;;;6.65;4.50;;;7.60;99.90;;;7.82;81.84;100485.94;5035584;28;20051;-68
2023/03/06 06:47:09;;;;;;;10.18;4.72;;;7.60;99.90;;;7.89;81.62;100484.19;5035229;28;20097;-69
2023/03/06 06:49:56;;;;;;;7.40;4.45;;;7.70;99.90;;;7.92;81.86;100485.06;5033650;28;20057;-69
2023/03/06 06:52:25;;;;;;;8.20;4.75;;;7.70;99.90;;;7.77;81.03;100465.75;5034834;28;20050;-69
2023/03/06 06:54:54;;;;;;;8.27;4.93;;;7.70;99.90;;;7.90;81.39;100494.72;5035236;28;20408;-69
2023/03/06 06:57:22;;;;;;;7.82;4.07;;;7.70;99.90;;;7.88;81.51;100496.47;5034815;28;20056;-68
2023/03/06 06:59:51;;;;;;;6.25;4.47;;;7.70;99.90;;;7.85;81.63;100491.22;5034662;28;20357;-68
2023/03/06 07:02:21;;;;;;;5.72;4.50;;;7.60;99.90;;;7.87;81.47;100499.09;5034997;28;20457;-69
2023/03/06 07:04:50;;;;;;;5.65;4.35;;;7.60;99.90;;;7.88;81.64;100491.19;5034695;28;20037;-69
2023/03/06 07:07:35;;;;;;;9.23;4.95;;;7.60;99.90;;;7.87;81.63;100496.47;5034909;28;20103;-69
2023/03/06 07:10:05;;;;;;;8.00;4.72;;;7.60;99.90;;;7.89;81.96;100492.97;5034903;28;20455;-69
2023/03/06 07:12:34;;;;;;;7.13;4.53;;;7.60;99.90;;;7.97;81.43;100492.97;5034742;28;20400;-68
2023/03/06 07:15:03;;;;;;;5.32;4.88;;;7.70;99.90;;;8.01;81.40;100487.69;5034658;28;20042;-68
2023/03/06 07:17:32;;;;;;;8.00;4.70;;;7.70;99.90;;;8.01;81.70;100495.59;5033362;28;20053;-68
2023/03/06 07:20:00;;;;;;;5.25;4.75;;;7.70;99.90;;;8.02;80.92;100496.47;5034710;28;20116;-68
2023/03/06 07:22:29;;;;;;;7.78;4.80;;;7.70;99.90;;;7.91;81.67;100477.19;5034475;28;20069;-68
2023/03/06 07:25:11;;;;;;;5.13;4.00;;;7.80;99.90;;;7.86;81.78;100471.00;5034975;28;20049;-68
2023/03/06 07:27:39;;;;;;;7.53;4.40;;;7.70;99.90;;;8.08;81.59;100493.84;5034294;28;20107;-69
2023/03/06 07:30:11;;;;;;;6.35;4.60;;;7.80;99.90;;;8.10;81.01;100492.97;5049890;28;20045;-69
2023/03/06 07:32:39;;;;;;;6.90;4.85;;;7.80;99.90;;;8.10;80.98;100498.25;5034250;28;20464;-69
2023/03/06 07:35:09;;;;;;;6.32;4.10;;;7.80;99.90;;;8.11;81.07;100494.72;5034591;28;20052;-69
2023/03/06 07:37:47;;;;;;;5.20;4.53;;;7.90;99.90;;;8.30;81.27;100494.75;5034419;28;20045;-69
2023/03/06 07:40:18;;;;;;;6.80;4.38;;;8.00;99.90;;;8.43;80.65;100488.56;5034273;28;20045;-67
2023/03/06 07:42:46;;;;;;;6.13;4.68;;;8.10;99.90;;;8.52;80.62;100493.81;5033954;28;20073;-68
2023/03/06 07:45:18;;;;;;;5.68;4.85;;;8.30;99.90;;;8.55;80.25;100492.06;5033035;28;20056;-68
2023/03/06 07:47:49;;;;;;;10.05;4.88;;;8.30;99.90;;;8.54;80.14;100498.19;5034463;28;20069;-68
2023/03/06 07:50:19;;;;;;;14.07;4.80;;;8.30;99.90;;;8.60;80.68;100497.31;5034538;28;20045;-68
2023/03/06 07:52:48;;;;;;;5.85;4.55;;;8.30;99.90;;;8.62;80.61;100493.78;5033817;28;20048;-69
2023/03/06 07:55:18;;;;;;;6.70;5.00;;;8.40;99.90;;;8.67;79.85;100496.44;5034053;28;20045;-68
2023/03/06 07:57:50;;;;;;;5.95;4.68;;;8.40;99.90;;;8.75;79.14;100495.50;5032686;28;20061;-68
2023/03/06 08:00:20;;;;;;;5.32;4.40;;;8.50;99.90;;;8.77;79.40;100498.13;5034154;28;20441;-69
2023/03/06 08:02:49;;;;;;;8.70;4.70;;;8.50;99.90;;;8.77;79.22;100493.75;5033693;28;20041;-70
2023/03/06 08:05:18;;;;;;;8.98;4.88;;;8.50;99.90;;;8.80;78.90;100484.94;5031464;28;20504;-70
2023/03/06 08:07:46;;;;;;;9.95;5.28;;;8.60;99.90;;;8.95;78.95;100492.78;5033511;28;20076;-69
2023/03/06 08:10:17;;;;;;;5.75;4.80;;;8.70;99.90;;;9.04;78.75;100491.00;5033785;28;20049;-66
2023/03/06 08:12:46;;;;;;;7.38;5.15;;;8.80;99.90;;;9.18;78.82;100498.84;5033379;28;20440;-67
2023/03/06 08:15:14;;;;;;;8.20;4.90;;;8.90;99.90;;;9.26;78.53;100497.06;5033159;28;20068;-70
2023/03/06 08:17:43;;;;;;;8.52;5.13;;;9.00;99.90;;;9.34;78.30;100495.25;5033604;28;20045;-70
2023/03/06 08:20:13;;;;;;;11.50;4.47;;;9.10;99.90;;;9.38;77.37;100493.47;5033591;28;20107;-70
2023/03/06 08:22:41;;;;;;;7.47;4.60;;;9.20;99.90;;;9.36;77.17;100500.50;5033493;28;20053;-69
2023/03/06 08:25:12;;;;;;;7.35;4.25;;;9.20;99.90;;;9.31;76.22;100504.97;5033184;28;20052;-66
2023/03/06 08:27:42;;;;;;;11.43;5.22;;;9.10;99.90;;;9.25;76.24;100500.59;5032195;28;20488;-69
2023/03/06 08:30:12;;;;;;;13.23;9.38;;;9.00;99.90;;;9.10;75.84;100503.28;5033469;28;20041;-70
2023/03/06 08:32:41;;;;;;;13.43;8.90;;;8.90;99.90;;;8.97;76.20;100501.59;5033207;28;20087;-70
2023/03/06 08:35:10;;;;;;;14.20;10.93;;;8.80;99.90;;;8.83;76.74;100506.91;5033131;28;20382;-71
2023/03/06 08:37:38;;;;;;;17.38;12.65;;;8.60;99.90;;;8.45;77.78;100495.59;5033252;28;20401;-70
2023/03/06 08:40:09;;;;;;;18.33;12.20;;;8.30;99.90;;;8.38;79.27;100503.50;5032946;28;20519;-69
2023/03/06 08:42:37;;;;;;;17.10;12.50;;;8.10;99.90;;;8.10;80.44;100482.44;5033288;28;20632;-70
2023/03/06 08:45:09;;;;;;;15.40;12.93;;;7.90;99.90;;;8.18;81.06;100501.75;5033107;28;20064;-70
2023/03/06 08:47:38;;;;;;;16.38;13.40;;;7.90;99.90;;;8.16;81.85;100497.34;5031879;28;20056;-69
2023/03/06 08:50:07;;;;;;;20.52;13.82;;;7.90;99.90;;;8.01;83.37;100497.38;5033242;28;20099;-70
2023/03/06 08:52:35;;;;;;;20.33;14.70;;;7.80;99.90;;;7.99;83.68;100497.34;5032760;28;20559;-69
2023/03/06 08:55:04;;;;;;;17.02;14.02;;;7.80;99.90;;;8.06;84.29;100496.47;5032661;28;20515;-70
2023/03/06 08:57:32;;;;;;;19.77;14.73;;;7.80;99.90;;;8.05;84.11;100493.84;5032969;28;20034;-70
2023/03/06 09:00:01;;;;;;;22.73;14.43;;;7.80;99.90;;;8.07;84.83;100494.75;5032980;28;20045;-70
2023/03/06 09:02:31;;;;;;;23.55;14.10;;;7.80;99.90;;;8.18;84.20;100499.13;5032936;28;20048;-70
2023/03/06 09:05:00;;;;;;;21.25;14.05;;;8.00;99.90;;;8.23;84.28;100499.09;5032835;28;20056;-66
2023/03/06 09:07:29;;;;;;;19.92;13.32;;;8.00;99.90;;;7.93;84.07;100478.94;5032562;28;20037;-68
2023/03/06 09:09:58;;;;;;;19.48;13.18;;;7.80;99.90;;;8.05;83.72;100496.50;5033080;28;20115;-65
2023/03/06 09:12:26;;;;;;;20.77;13.63;;;7.80;99.90;;;7.78;83.61;100475.44;5032731;28;20048;-67
2023/03/06 09:14:57;;;;;;;18.58;13.10;;;7.80;99.90;;;8.09;83.35;100499.09;5033029;28;20091;-65
2023/03/06 09:17:26;;;;;;;19.98;13.73;;;7.80;99.90;;;8.02;82.98;100505.25;5032059;28;20049;-65
2023/03/06 09:19:56;;;;;;;18.35;12.25;;;7.80;99.90;;;7.98;82.54;100497.34;5032392;28;20084;-69
2023/03/06 09:22:25;;;;;;;15.45;11.93;;;7.80;99.90;;;7.79;81.59;100485.06;5032787;28;20455;-69
2023/03/06 09:24:53;;;;;;;16.35;12.00;;;7.60;99.90;;;7.81;81.35;100494.72;5032375;28;20042;-69
2023/03/06 09:27:22;;;;;;;18.85;11.88;;;7.60;99.90;;;7.77;81.33;100494.72;5032264;28;20037;-68
2023/03/06 09:29:50;;;;;;;17.45;11.55;;;7.60;99.90;;;7.91;81.23;100495.59;5031309;28;20099;-68
2023/03/06 09:32:19;;;;;;;19.08;11.43;;;7.70;99.90;;;8.11;81.32;100494.72;5031544;28;20045;-68
2023/03/06 09:34:47;;;;;;;20.30;11.77;;;7.90;99.90;;;8.23;81.33;100503.50;5032265;28;20037;-68
2023/03/06 09:37:18;;;;;;;18.48;11.55;;;8.00;99.90;;;8.43;80.32;100493.81;5032415;28;20489;-68
2023/03/06 09:39:46;;;;;;;16.15;11.32;;;8.20;99.90;;;8.61;79.34;100497.31;5032171;28;20068;-62
2023/03/06 09:42:18;;;;;;;17.05;11.48;;;8.40;99.90;;;8.59;78.87;100493.81;5032037;28;20041;-69
2023/03/06 09:44:52;;;;;;;19.00;11.38;;;8.40;99.90;;;8.83;77.31;100488.44;5032561;28;20045;-69
2023/03/06 09:47:40;;;;;;;15.75;11.40;;;8.60;99.90;;;8.92;76.03;100487.53;5031147;28;20061;-69
2023/03/06 09:50:37;;;;;;;15.93;10.73;;;8.70;99.90;;;8.97;75.96;100477.84;5032489;28;20057;-68
2023/03/06 09:53:32;;;;;;;14.18;9.95;;;8.80;99.90;;;8.95;75.09;100485.78;5032606;28;20056;-68
2023/03/06 09:56:06;;;;;;;15.82;10.65;;;8.70;99.90;;;9.00;74.63;100491.88;5031917;28;20045;-69
2023/03/06 09:58:42;;;;;;;14.13;11.80;;;8.80;99.90;;;9.02;73.41;100481.31;5032602;28;20041;-69
2023/03/06 10:01:17;;;;;;;14.77;12.25;;;8.80;99.90;;;9.06;73.68;100490.97;5032293;28;20065;-70
2023/03/06 10:03:52;;;;;;;15.90;11.70;;;8.80;99.90;;;8.91;73.12;100469.97;5032680;28;20057;-70
2023/03/06 10:06:26;;;;;;;21.17;11.40;;;8.80;99.90;;;9.00;71.42;100486.63;5032038;28;20049;-70
2023/03/06 10:09:01;;;;;;;13.60;10.35;;;8.80;99.90;;;8.87;71.89;100484.03;5032397;28;20053;-68
2023/03/06 10:11:37;;;;;;;15.65;12.05;;;8.70;99.90;;;8.90;71.46;100482.25;5032838;28;20045;-68
2023/03/06 10:14:20;;;;;;;23.05;12.23;;;8.70;99.90;;;8.76;71.82;100443.66;5032222;28;20477;-68
2023/03/06 10:16:48;;;;;;;12.70;10.35;;;8.70;99.90;;;8.96;70.97;100470.81;5031949;28;20099;-68
2023/03/06 10:19:19;;;;;;;14.90;11.13;;;8.80;99.90;;;8.88;70.21;100475.25;5031808;28;20556;-68
2023/03/06 10:21:56;;;;;;;;;;;8.70;99.90;;;8.98;71.29;100467.28;5032921;28;20037;-69
2023/03/06 10:24:41;;;;;;;17.75;11.55;;;8.80;99.90;;;9.05;70.89;100470.78;5032086;28;19921;-69
2023/03/06 10:27:22;;;;;;;15.57;11.60;;;8.80;99.90;;;9.27;69.87;100467.13;5032086;28;20058;-69
2023/03/06 10:30:01;;;;;;;13.60;11.55;;;9.10;99.90;;;9.54;69.78;100471.38;5035426;28;20080;-69
2023/03/06 10:32:39;;;;;;;14.65;10.32;;;9.30;99.90;;;9.52;67.73;100462.59;5035383;28;20129;-69
2023/03/06 10:35:20;;;;;;;14.18;10.35;;;9.40;99.90;;;9.70;68.96;100459.81;5035304;28;20053;-69
2023/03/06 10:37:49;;;;;;;14.63;10.38;;;9.50;99.90;;;9.89;67.76;100464.09;5035729;28;20468;-69